Maersk Barry — OYJE2 — position and weather

sailwx.info

Track history (hours):
 
Tides and Currents Weather Stations Pressure Air Temp Water Temp Dewpoint Dewpoint Depression Visibility Wind Speed Wind Dir Waves Ship Positions

Maersk Barry

Last reported at 2016-Apr-30 16:31 UTC. Time now 2016-Apr-30 16:52 UTC.
Position N 29°55' W 090°09'.

Length 175 m; draft 8.9 m.

Type: Ship. MMSI: 219127000.

Date/timePositionNaut miles runAvg speedWind from/ knotsBaromVisibWave heightAir tempDewpointWater temp
2016-Apr-30 16:31N 29°55' W 090°09'0 0.0
2016-Apr-30 15:31N 29°55' W 090°09'0 0.0
2016-Apr-30 14:25N 29°55' W 090°09'0 0.0
2016-Apr-30 13:31N 29°55' W 090°09'0 0.0
2016-Apr-30 12:22N 29°55' W 090°09'0 0.0
2016-Apr-30 11:31N 29°55' W 090°09'0 0.0
2016-Apr-30 10:31N 29°55' W 090°09'0 0.0
2016-Apr-30 09:28N 29°55' W 090°09'0 0.0
2016-Apr-30 08:31N 29°55' W 090°09'0 0.0
2016-Apr-30 07:28N 29°55' W 090°09'0 0.0
2016-Apr-30 06:31N 29°55' W 090°09'0 0.0
2016-Apr-30 05:31N 29°55' W 090°09'0 0.0
2016-Apr-30 04:28N 29°55' W 090°09'0 0.0
2016-Apr-30 03:28N 29°55' W 090°09'0 0.0
2016-Apr-30 02:31N 29°55' W 090°09'0 0.0
2016-Apr-30 01:31N 29°55' W 090°09'0 0.0
2016-Apr-30 00:31N 29°55' W 090°09'0 0.0
2016-Apr-29 23:31N 29°55' W 090°09'0 0.0
2016-Apr-29 22:31N 29°55' W 090°09'0 0.0
2016-Apr-29 21:31N 29°55' W 090°09'0 0.0
2016-Apr-29 20:31N 29°55' W 090°09'0 0.0
2016-Apr-29 19:31N 29°55' W 090°09'0 0.1
2016-Apr-29 18:33N 29°55' W 090°08'  
2016-Apr-27 07:34N 29°55' W 090°13'8 7.8
2016-Apr-27 06:34N 29°56' W 090°04'7 7.0
2016-Apr-27 05:33N 29°55' W 089°56'7 7.1
2016-Apr-27 04:33N 29°49' W 090°00'  
2016-Apr-24 05:33N 25°51' W 079°32'1111.4
2016-Apr-24 04:33N 26°02' W 079°29'1111.4
2016-Apr-24 03:33N 26°14' W 079°28'  
2016-Apr-21 11:05N 36°49' W 075°44'7 8.6
2016-Apr-21 10:18N 36°51' W 075°51'7 9.2
2016-Apr-21 09:33N 36°56' W 075°58'1513.5
2016-Apr-21 08:27N 37°08' W 076°09'1515.2
2016-Apr-21 07:29N 37°22' W 076°05'1414.7
2016-Apr-21 06:33N 37°36' W 076°07'1414.1
2016-Apr-21 05:34N 37°50' W 076°10'1513.5
2016-Apr-21 04:27N 38°04' W 076°14'1713.9
2016-Apr-21 03:13N 38°21' W 076°19'2513.8
2016-Apr-21 01:24N 38°45' W 076°26'1314.9
2016-Apr-21 00:34N 38°58' W 076°23'1312.8
2016-Apr-20 23:34N 39°10' W 076°26'10 9.4
2016-Apr-20 22:32N 39°17' W 076°35'0 0.1
2016-Apr-20 21:32N 39°16' W 076°35'0 0.0
2016-Apr-20 20:32N 39°16' W 076°35'0 0.0
2016-Apr-20 19:32N 39°16' W 076°35'0 0.0
2016-Apr-20 18:32N 39°16' W 076°35'0 0.0
2016-Apr-20 17:29N 39°16' W 076°35'  
Track history (hours):
 
Tides and Currents Weather Stations Pressure Air Temp Water Temp Dewpoint Dewpoint Depression Visibility Wind Speed Wind Dir Waves Ship Positions

Maersk Barry

Last reported at 2016-Apr-30 16:31 UTC. Time now 2016-Apr-30 16:52 UTC.
Position N 29°55' W 090°09'.

Length 175 m; draft 8.9 m.

Type: Ship. MMSI: 219127000.

Date/timePositionNaut miles runAvg speedWind from/ knotsBaromVisibWave heightAir tempDewpointWater temp
2016-Apr-30 16:31N 29°55' W 090°09'0 0.0
2016-Apr-30 15:31N 29°55' W 090°09'0 0.0
2016-Apr-30 14:25N 29°55' W 090°09'0 0.0
2016-Apr-30 13:31N 29°55' W 090°09'0 0.0
2016-Apr-30 12:22N 29°55' W 090°09'0 0.0
2016-Apr-30 11:31N 29°55' W 090°09'0 0.0
2016-Apr-30 10:31N 29°55' W 090°09'0 0.0
2016-Apr-30 09:28N 29°55' W 090°09'0 0.0
2016-Apr-30 08:31N 29°55' W 090°09'0 0.0
2016-Apr-30 07:28N 29°55' W 090°09'0 0.0
2016-Apr-30 06:31N 29°55' W 090°09'0 0.0
2016-Apr-30 05:31N 29°55' W 090°09'0 0.0
2016-Apr-30 04:28N 29°55' W 090°09'0 0.0
2016-Apr-30 03:28N 29°55' W 090°09'0 0.0
2016-Apr-30 02:31N 29°55' W 090°09'0 0.0
2016-Apr-30 01:31N 29°55' W 090°09'0 0.0
2016-Apr-30 00:31N 29°55' W 090°09'0 0.0
2016-Apr-29 23:31N 29°55' W 090°09'0 0.0
2016-Apr-29 22:31N 29°55' W 090°09'0 0.0
2016-Apr-29 21:31N 29°55' W 090°09'0 0.0
2016-Apr-29 20:31N 29°55' W 090°09'0 0.0
2016-Apr-29 19:31N 29°55' W 090°09'0 0.1
2016-Apr-29 18:33N 29°55' W 090°08'  
2016-Apr-27 07:34N 29°55' W 090°13'8 7.8
2016-Apr-27 06:34N 29°56' W 090°04'7 7.0
2016-Apr-27 05:33N 29°55' W 089°56'7 7.1
2016-Apr-27 04:33N 29°49' W 090°00'  
2016-Apr-24 05:33N 25°51' W 079°32'1111.4
2016-Apr-24 04:33N 26°02' W 079°29'1111.4
2016-Apr-24 03:33N 26°14' W 079°28'  
2016-Apr-21 11:05N 36°49' W 075°44'7 8.6
2016-Apr-21 10:18N 36°51' W 075°51'7 9.2
2016-Apr-21 09:33N 36°56' W 075°58'1513.5
2016-Apr-21 08:27N 37°08' W 076°09'1515.2
2016-Apr-21 07:29N 37°22' W 076°05'1414.7
2016-Apr-21 06:33N 37°36' W 076°07'1414.1
2016-Apr-21 05:34N 37°50' W 076°10'1513.5
2016-Apr-21 04:27N 38°04' W 076°14'1713.9
2016-Apr-21 03:13N 38°21' W 076°19'2513.8
2016-Apr-21 01:24N 38°45' W 076°26'1314.9
2016-Apr-21 00:34N 38°58' W 076°23'1312.8
2016-Apr-20 23:34N 39°10' W 076°26'10 9.4
2016-Apr-20 22:32N 39°17' W 076°35'0 0.1
2016-Apr-20 21:32N 39°16' W 076°35'0 0.0
2016-Apr-20 20:32N 39°16' W 076°35'0 0.0
2016-Apr-20 19:32N 39°16' W 076°35'0 0.0
2016-Apr-20 18:32N 39°16' W 076°35'0 0.0
2016-Apr-20 17:29N 39°16' W 076°35'  

Dump ship's entire track history